SESA/SNC METAR and TAF weather

Enter ICAO airport designator
Station Type Date Time Source
SESA METAR 2020/07/04 03:00 UTC NOAA

SESA 040300Z 25008KT 9999 SCT007 OVC010 22/20 Q1013 RMK A2993


Station Type Date Time Source
SESA Decoded METAR 2020/07/04 03:00 UTC NOAA

Salinas / General Ulpiano Paez, Ecuador (SESA) 02-12S 080-59W 8M
Jul 03, 2020 - 11:00 PM EDT / 2020.07.04 0300 UTC
Wind: from the WSW (250 degrees) at 9 MPH (8 KT):0
Visibility: greater than 7 mile(s):0
Sky conditions: overcast
Temperature: 71 F (22 C)
Dew Point: 68 F (20 C)
Relative Humidity: 88%
Pressure (altimeter): 29.91 in. Hg (1013 hPa)
ob: SESA 040300Z 25008KT 9999 SCT007 OVC010 22/20 Q1013 RMK A2993
cycle: 3

Station Type Date Time Source
SESA TAF UTC NOAA

Error!

Example: see airport list